Time;durP1;ratioP1;P1;durP2;ratioP2;P2;SDS_P1;SDS_P2;PMS_P1;PMS_P2;Temp;Humidity;BMP_temperature;BMP_pressure;BME280_temperature;BME280_humidity;BME280_pressure;Samples;Min_cycle;Max_cycle;Signal;HPM_P1;HPM_P2
2022/10/11 00:00:19;;;;;;;7.40;4.50;;;;;;;18.35;68.71;97954.00;5052462;28;20240;-74
2022/10/11 00:02:44;;;;;;;7.90;4.70;;;;;;;18.30;68.33;97950.25;5052386;28;20207;-75
2022/10/11 00:05:10;;;;;;;13.30;5.50;;;;;;;18.31;68.42;97960.69;5051564;28;20740;-74
2022/10/11 00:07:36;;;;;;;13.87;5.87;;;;;;;18.30;68.27;97952.91;5043696;28;20187;-74
2022/10/11 00:10:04;;;;;;;12.03;5.43;;;;;;;18.21;68.23;97957.50;5052150;28;20175;-74
2022/10/11 00:12:29;;;;;;;8.77;5.40;;;;;;;18.11;68.56;97957.75;5036039;28;20456;-73
2022/10/11 00:14:55;;;;;;;8.67;5.07;;;;;;;18.14;68.55;97957.41;5052760;28;20425;-74
2022/10/11 00:17:20;;;;;;;6.13;5.00;;;;;;;18.11;68.39;97971.03;5052366;28;20222;-73
2022/10/11 00:19:46;;;;;;;9.73;5.50;;;;;;;18.09;68.57;97970.38;5052912;28;20215;-74
2022/10/11 00:22:11;;;;;;;11.70;5.10;;;;;;;18.06;68.57;97968.06;5042170;28;20753;-75
2022/10/11 00:24:37;;;;;;;11.77;5.60;;;;;;;17.99;68.50;97967.16;5042624;28;20634;-74
2022/10/11 00:27:02;;;;;;;7.90;5.07;;;;;;;17.93;68.33;97969.50;5047446;28;20234;-74
2022/10/11 00:29:28;;;;;;;8.17;4.40;;;;;;;17.90;68.32;97971.69;5051618;28;20206;-74
2022/10/11 00:31:53;;;;;;;7.63;4.33;;;;;;;17.84;68.09;97973.25;5052173;28;20218;-75
2022/10/11 00:34:19;;;;;;;14.33;4.67;;;;;;;17.74;68.08;97972.69;5051972;28;20226;-75
2022/10/11 00:36:44;;;;;;;9.27;4.60;;;;;;;17.75;68.17;97966.38;5044890;28;20587;-75
2022/10/11 00:39:10;;;;;;;10.07;4.60;;;;;;;17.76;68.12;97975.97;5049215;28;20203;-75
2022/10/11 00:41:36;;;;;;;12.90;5.07;;;;;;;17.76;67.91;97970.66;5043785;28;20264;-75
2022/10/11 00:44:21;;;;;;;8.70;4.63;;;;;;;17.74;68.36;97973.47;5051493;28;20685;-74
2022/10/11 00:46:59;;;;;;;11.57;4.73;;;;;;;17.75;68.28;97969.03;5050662;28;20236;-73
2022/10/11 00:49:36;;;;;;;11.27;5.03;;;;;;;17.74;68.25;97975.31;5048861;28;20423;-73
2022/10/11 00:52:06;;;;;;;10.57;4.33;;;;;;;17.73;68.13;97971.03;5046681;28;20437;-74
2022/10/11 00:54:34;;;;;;;7.33;4.20;;;;;;;17.73;67.88;97977.13;5050249;28;20509;-73
2022/10/11 00:57:03;;;;;;;8.10;4.63;;;;;;;17.69;67.69;97967.91;5045695;28;20437;-74
2022/10/11 00:59:30;;;;;;;5.77;3.90;;;;;;;17.69;67.82;97975.03;5049533;28;20921;-74
2022/10/11 01:01:56;;;;;;;8.87;4.50;;;;;;;17.64;67.42;97972.91;5049594;28;20429;-73
2022/10/11 01:04:21;;;;;;;8.83;4.30;;;;;;;17.62;67.21;97970.47;5051168;28;20422;-73
2022/10/11 01:06:48;;;;;;;11.57;3.90;;;;;;;17.64;67.06;97972.91;5050404;28;20646;-73
2022/10/11 01:09:14;;;;;;;13.10;4.70;;;;;;;17.61;67.05;97986.53;5050147;28;20383;-73
2022/10/11 01:11:41;;;;;;;10.10;4.47;;;;;;;17.57;67.19;97980.75;5051733;28;20465;-74
2022/10/11 01:14:37;;;;;;;6.10;4.40;;;;;;;17.55;67.46;97976.66;5050054;28;20214;-73
2022/10/11 01:17:21;;;;;;;9.53;4.40;;;;;;;17.55;67.46;97980.09;5045783;28;20505;-74
2022/10/11 01:20:08;;;;;;;18.80;4.53;;;;;;;17.50;67.24;97977.19;5050526;28;20457;-73
2022/10/11 01:22:48;;;;;;;9.57;4.17;;;;;;;17.47;67.22;97977.53;5030305;28;20465;-72
2022/10/11 01:25:34;;;;;;;11.03;5.30;;;;;;;17.45;66.99;97982.19;5045312;28;20439;-73
2022/10/11 01:28:09;;;;;;;7.83;4.27;;;;;;;17.42;66.99;97980.72;5046217;28;20518;-74
2022/10/11 01:30:35;;;;;;;10.87;4.50;;;;;;;17.35;67.25;97979.75;5038559;28;20424;-74
2022/10/11 01:33:30;;;;;;;7.17;4.20;;;;;;;17.32;67.59;97980.94;5049654;28;20592;-75
2022/10/11 01:36:40;;;;;;;9.37;5.13;;;;;;;17.28;67.57;97982.28;5050933;28;20435;-73
2022/10/11 01:39:14;;;;;;;9.27;4.03;;;;;;;17.32;67.69;97978.28;5046101;28;20469;-74
2022/10/11 01:41:45;;;;;;;8.87;4.20;;;;;;;17.30;67.55;97982.13;5043592;28;20430;-75
2022/10/11 01:44:11;;;;;;;12.97;4.50;;;;;;;17.34;67.69;97975.47;5049254;28;20449;-74
2022/10/11 01:46:37;;;;;;;7.73;4.23;;;;;;;17.29;67.93;97976.00;5050201;28;20459;-74
2022/10/11 01:49:03;;;;;;;8.60;3.90;;;;;;;17.31;67.84;97974.00;5050923;28;20422;-74
2022/10/11 01:51:32;;;;;;;9.20;4.60;;;;;;;17.31;67.67;97979.28;5041425;28;20266;-74
2022/10/11 01:54:10;;;;;;;11.67;4.93;;;;;;;17.33;67.73;97977.28;5049443;28;20442;-74
2022/10/11 01:57:09;;;;;;;10.50;5.07;;;;;;;17.33;67.87;97977.28;5046203;28;20431;-74
2022/10/11 01:59:46;;;;;;;7.90;4.70;;;;;;;17.33;67.83;97982.59;5050248;28;20995;-74
2022/10/11 02:02:36;;;;;;;8.83;4.80;;;;;;;17.29;67.91;97976.00;5049982;28;20441;-74
2022/10/11 02:05:10;;;;;;;13.30;5.10;;;;;;;17.31;67.63;97974.00;5050645;28;20436;-73
2022/10/11 02:07:51;;;;;;;13.37;3.90;;;;;;;17.25;67.57;97972.06;5048713;28;20453;-74
2022/10/11 02:10:27;;;;;;;12.10;4.30;;;;;;;17.22;67.70;97968.94;5049530;28;20421;-74
2022/10/11 02:12:59;;;;;;;10.67;4.20;;;;;;;17.19;67.69;97975.41;5049972;28;20440;-74
2022/10/11 02:15:26;;;;;;;7.80;4.33;;;;;;;17.16;67.58;97973.94;5047046;28;20434;-73
2022/10/11 02:17:55;;;;;;;8.07;3.93;;;;;;;17.07;67.50;97971.50;5042755;28;20429;-74
2022/10/11 02:20:24;;;;;;;10.43;4.60;;;;;;;17.07;67.68;97971.50;5046571;28;20557;-73
2022/10/11 02:22:54;;;;;;;9.53;4.90;;;;;;;17.09;67.98;97978.28;5043890;28;20478;-74
2022/10/11 02:25:23;;;;;;;10.90;5.80;;;;;;;17.09;67.98;97974.81;5046460;28;20840;-71
2022/10/11 02:27:50;;;;;;;6.47;4.47;;;;;;;17.11;67.56;97980.75;5048254;28;20452;-74
2022/10/11 02:30:16;;;;;;;15.83;4.20;;;;;;;17.12;67.91;97979.78;5050235;28;20461;-74
2022/10/11 02:32:43;;;;;;;12.37;4.67;;;;;;;17.11;67.77;97975.47;5049187;28;20865;-75
2022/10/11 02:35:10;;;;;;;11.73;4.60;;;;;;;17.11;67.91;97973.63;5048744;28;20256;-74
2022/10/11 02:38:26;;;;;;;14.27;4.80;;;;;;;17.07;67.91;97972.34;5047912;28;20417;-74
2022/10/11 02:41:22;;;;;;;11.07;4.57;;;;;;;17.15;68.07;97974.94;5023497;28;20475;-74
2022/10/11 02:44:02;;;;;;;7.43;4.30;;;;;;;17.13;68.19;97981.41;5043196;28;20979;-74
2022/10/11 02:46:29;;;;;;;14.20;4.87;;;;;;;17.09;68.06;97980.13;5039696;28;20899;-76
2022/10/11 02:48:57;;;;;;;11.53;4.40;;;;;;;17.07;67.63;97990.06;5040594;28;20917;-75
2022/10/11 02:51:25;;;;;;;11.70;4.67;;;;;;;17.07;67.47;97987.41;5039084;28;20944;-75
2022/10/11 02:53:51;;;;;;;10.10;4.57;;;;;;;17.02;67.69;97994.03;5053444;28;20452;-73
2022/10/11 02:56:16;;;;;;;10.47;4.80;;;;;;;17.03;67.95;97986.94;5050102;28;20792;-73
2022/10/11 02:58:41;;;;;;;9.33;4.33;;;;;;;17.05;68.19;97984.94;5053555;28;20309;-75
2022/10/11 03:01:07;;;;;;;10.33;4.77;;;;;;;17.10;68.61;97992.34;5053657;28;20179;-74
2022/10/11 03:03:32;;;;;;;9.50;5.10;;;;;;;17.09;68.67;97996.81;5052420;28;20207;-75
2022/10/11 03:06:00;;;;;;;18.40;4.60;;;;;;;17.11;68.87;97994.00;5053676;28;20210;-74
2022/10/11 03:08:26;;;;;;;13.83;5.30;;;;;;;17.12;68.58;97993.00;5043213;28;20183;-74
2022/10/11 03:10:51;;;;;;;10.20;5.17;;;;;;;17.13;68.72;98000.78;5053761;28;20750;-74
2022/10/11 03:13:16;;;;;;;15.10;5.40;;;;;;;17.11;68.52;97997.47;5052324;28;20569;-74
2022/10/11 03:15:42;;;;;;;7.40;4.70;;;;;;;17.12;68.71;97995.66;5023513;28;20574;-74
2022/10/11 03:18:07;;;;;;;13.73;5.40;;;;;;;17.13;68.94;98002.59;5031644;28;20261;-73
2022/10/11 03:20:33;;;;;;;11.73;5.73;;;;;;;17.15;69.04;98001.41;5037209;28;20207;-72
2022/10/11 03:22:58;;;;;;;9.20;5.57;;;;;;;17.17;69.09;98011.84;5036931;28;20195;-73
2022/10/11 03:25:24;;;;;;;15.43;5.40;;;;;;;17.19;69.07;98008.03;5037806;28;20180;-73
2022/10/11 03:27:49;;;;;;;10.83;5.40;;;;;;;17.19;69.24;98002.72;5033166;28;20663;-74
2022/10/11 03:30:15;;;;;;;14.53;5.03;;;;;;;17.20;69.32;98008.84;5032957;28;20176;-74
2022/10/11 03:32:42;;;;;;;10.07;5.47;;;;;;;17.22;69.21;98009.50;5033182;28;20199;-74
2022/10/11 03:35:07;;;;;;;11.73;4.40;;;;;;;17.20;69.36;98008.84;5033815;28;20430;-74
2022/10/11 03:37:33;;;;;;;12.77;5.90;;;;;;;17.24;69.15;98012.81;5032094;28;20790;-72
2022/10/11 03:39:58;;;;;;;10.57;5.83;;;;;;;17.19;69.35;98010.69;5015665;28;20624;-74
2022/10/11 03:42:24;;;;;;;11.23;6.90;;;;;;;17.28;69.46;98013.28;5032906;28;20231;-74
2022/10/11 03:44:50;;;;;;;12.37;6.77;;;;;;;17.28;69.49;98016.72;5044796;28;20186;-74
2022/10/11 03:47:16;;;;;;;21.57;6.50;;;;;;;17.29;69.41;98015.72;5040314;28;20191;-74
2022/10/11 03:49:42;;;;;;;10.13;6.27;;;;;;;17.28;69.42;98015.91;5031095;28;20419;-74
2022/10/11 03:52:07;;;;;;;16.33;6.80;;;;;;;17.25;69.47;98016.25;5041173;28;20424;-74
2022/10/11 03:54:33;;;;;;;16.10;7.57;;;;;;;17.21;69.39;98023.75;5032646;28;20278;-74
2022/10/11 03:56:58;;;;;;;14.97;6.40;;;;;;;17.22;69.69;98025.38;5032556;28;20179;-74
2022/10/11 03:59:24;;;;;;;11.00;6.80;;;;;;;17.21;69.79;98021.09;5033708;28;20696;-74
2022/10/11 04:01:49;;;;;;;12.87;7.80;;;;;;;17.17;69.85;98025.06;5038012;28;20215;-74
2022/10/11 04:04:15;;;;;;;10.50;6.70;;;;;;;17.14;70.19;98025.41;5030555;28;20198;-74
2022/10/11 04:06:40;;;;;;;9.47;7.80;;;;;;;17.15;70.17;98024.41;5031331;28;20192;-75
2022/10/11 04:09:06;;;;;;;14.60;8.57;;;;;;;17.16;70.48;98028.72;5040209;28;20262;-74
2022/10/11 04:11:31;;;;;;;16.00;8.83;;;;;;;17.16;70.44;98029.56;5032578;28;20613;-74
2022/10/11 04:13:57;;;;;;;12.20;6.87;;;;;;;17.18;70.55;98037.31;5032512;28;20207;-73
2022/10/11 04:16:22;;;;;;;14.50;7.50;;;;;;;17.16;70.22;98032.22;5038641;28;20186;-75
2022/10/11 04:18:47;;;;;;;12.90;6.53;;;;;;;17.19;70.14;98044.28;5032160;28;20270;-74
2022/10/11 04:21:13;;;;;;;12.10;6.27;;;;;;;17.20;70.06;98035.31;5038847;28;20643;-74
2022/10/11 04:23:38;;;;;;;12.77;7.43;;;;;;;17.19;70.01;98036.31;5035343;28;20210;-72
2022/10/11 04:26:05;;;;;;;13.53;7.83;;;;;;;17.23;69.85;98040.28;5035377;28;20194;-71
2022/10/11 04:28:31;;;;;;;18.30;8.03;;;;;;;17.22;70.05;98043.09;5031605;28;20686;-75
2022/10/11 04:30:56;;;;;;;20.87;9.93;;;;;;;17.23;70.17;98040.28;5032083;28;20454;-73
2022/10/11 04:33:22;;;;;;;21.50;8.30;;;;;;;17.24;70.16;98041.94;5040171;28;20264;-74
2022/10/11 04:35:47;;;;;;;14.70;8.23;;;;;;;17.18;70.32;98032.88;5032325;28;20199;-74
2022/10/11 04:38:13;;;;;;;20.77;9.33;;;;;;;17.22;70.39;98035.97;5029520;28;20179;-75
2022/10/11 04:40:38;;;;;;;15.73;8.67;;;;;;;17.21;70.31;98036.97;5042712;28;20292;-74
2022/10/11 04:43:04;;;;;;;25.83;8.20;;;;;;;17.25;70.14;98033.00;5035507;28;20219;-75
2022/10/11 04:45:29;;;;;;;23.63;8.63;;;;;;;17.27;70.36;98036.25;5027955;28;20270;-74
2022/10/11 04:47:54;;;;;;;16.13;9.63;;;;;;;17.30;70.17;98037.75;5040960;28;20653;-74
2022/10/11 04:50:20;;;;;;;22.67;12.60;;;;;;;17.29;70.34;98046.72;5032668;28;20195;-75
2022/10/11 04:52:45;;;;;;;30.13;13.93;;;;;;;17.28;70.45;98043.22;5031594;28;20199;-75
2022/10/11 04:55:11;;;;;;;27.33;14.17;;;;;;;17.32;70.31;98049.00;5031171;28;20618;-74
2022/10/11 04:57:36;;;;;;;31.27;14.50;;;;;;;17.32;70.47;98049.81;5038679;28;20180;-73
2022/10/11 05:00:03;;;;;;;21.43;14.20;;;;;;;17.34;70.33;98052.28;5030351;28;20671;-74
2022/10/11 05:02:29;;;;;;;25.83;14.03;;;;;;;17.32;70.43;98051.66;5038039;28;20242;-73
2022/10/11 05:04:55;;;;;;;28.10;14.50;;;;;;;17.32;70.63;98055.13;5038790;28;20793;-74
2022/10/11 05:07:20;;;;;;;26.00;14.17;;;;;;;17.34;70.53;98063.72;5031766;28;20214;-74
2022/10/11 05:09:46;;;;;;;25.23;14.80;;;;;;;17.37;70.45;98065.19;5031678;28;20274;-74
2022/10/11 05:12:11;;;;;;;29.40;15.17;;;;;;;17.38;70.66;98064.19;5030636;28;20215;-74
2022/10/11 05:14:37;;;;;;;29.67;14.63;;;;;;;17.38;70.38;98069.50;5043569;28;20191;-73
2022/10/11 05:17:02;;;;;;;16.73;11.57;;;;;;;17.35;70.53;98065.38;5024994;28;20188;-74
2022/10/11 05:19:28;;;;;;;22.43;11.00;;;;;;;17.37;70.55;98064.38;5029359;28;20200;-73
2022/10/11 05:21:54;;;;;;;20.57;10.90;;;;;;;17.39;70.38;98072.97;5038511;28;20270;-75
2022/10/11 05:24:19;;;;;;;18.20;12.20;;;;;;;17.40;70.45;98066.66;5026409;28;20184;-74
2022/10/11 05:26:45;;;;;;;23.27;13.50;;;;;;;17.41;70.43;98069.16;5030680;28;20497;-73
2022/10/11 05:29:10;;;;;;;25.43;14.73;;;;;;;17.42;70.31;98069.97;5031267;28;20551;-74
2022/10/11 05:31:36;;;;;;;20.20;13.97;;;;;;;17.43;70.36;98076.91;5029351;28;20267;-73
2022/10/11 05:34:01;;;;;;;23.00;14.83;;;;;;;17.43;70.40;98071.63;5030837;28;20288;-73
2022/10/11 05:36:26;;;;;;;27.60;15.10;;;;;;;17.41;70.57;98077.09;5029487;28;20268;-73
2022/10/11 05:38:52;;;;;;;20.70;11.93;;;;;;;17.43;70.31;98080.41;5031117;28;20210;-73
2022/10/11 05:41:17;;;;;;;22.13;13.13;;;;;;;17.41;70.53;98094.81;5037129;28;20543;-73
2022/10/11 05:43:44;;;;;;;21.03;12.97;;;;;;;17.39;70.35;98086.22;5029687;28;20218;-74
2022/10/11 05:46:10;;;;;;;26.67;14.57;;;;;;;17.38;70.24;98095.19;5031077;28;20262;-73
2022/10/11 05:48:35;;;;;;;26.23;15.00;;;;;;;17.40;70.54;98096.66;5034637;28;20511;-74
2022/10/11 05:51:02;;;;;;;26.83;15.90;;;;;;;17.36;70.57;98092.69;5030252;28;20188;-73
2022/10/11 05:53:28;;;;;;;25.93;16.50;;;;;;;17.36;70.71;98100.63;5030842;28;20572;-73
2022/10/11 05:55:54;;;;;;;31.20;17.87;;;;;;;17.35;70.84;98097.16;5029866;28;20466;-74
2022/10/11 05:58:20;;;;;;;34.43;17.23;;;;;;;17.35;70.68;98102.47;5029842;28;20435;-75
2022/10/11 06:00:45;;;;;;;38.70;17.50;;;;;;;17.38;70.73;98111.06;5033634;28;20212;-74
2022/10/11 06:03:11;;;;;;;30.70;17.10;;;;;;;17.34;70.64;98113.22;5027942;28;20203;-73
2022/10/11 06:05:37;;;;;;;31.13;17.63;;;;;;;17.37;70.48;98117.38;5030977;28;20179;-72
2022/10/11 06:08:04;;;;;;;33.03;17.27;;;;;;;17.39;70.53;98120.69;5030082;28;20933;-74
2022/10/11 06:10:30;;;;;;;29.93;17.70;;;;;;;17.38;70.61;98121.66;5022535;28;20179;-74
2022/10/11 06:12:56;;;;;;;28.93;17.37;;;;;;;17.36;70.36;98121.81;5028666;28;20846;-74
2022/10/11 06:15:21;;;;;;;27.33;16.57;;;;;;;17.36;70.18;98124.47;5033024;28;20198;-74
2022/10/11 06:17:47;;;;;;;33.60;16.87;;;;;;;17.37;70.10;98131.44;5035050;28;20253;-73
2022/10/11 06:20:12;;;;;;;26.30;16.53;;;;;;;17.37;70.16;98130.63;5039525;28;20194;-75
2022/10/11 06:22:38;;;;;;;30.50;17.53;;;;;;;17.41;70.12;98134.53;5037120;28;20199;-74
2022/10/11 06:25:04;;;;;;;24.87;16.50;;;;;;;17.42;70.15;98133.56;5027333;28;20192;-75
2022/10/11 06:27:29;;;;;;;30.07;16.90;;;;;;;17.42;70.19;98134.41;5023858;28;20180;-74
2022/10/11 06:29:55;;;;;;;23.87;15.93;;;;;;;17.45;69.96;98139.31;5033051;28;20787;-74
2022/10/11 06:32:20;;;;;;;29.10;15.90;;;;;;;17.46;70.00;98146.28;5044982;28;20345;-74
2022/10/11 06:34:46;;;;;;;30.40;16.60;;;;;;;17.45;69.84;98138.50;5039262;28;20278;-75
2022/10/11 06:37:11;;;;;;;33.87;16.83;;;;;;;17.47;69.81;98141.81;5033569;28;20199;-75
2022/10/11 06:39:37;;;;;;;27.60;15.80;;;;;;;17.48;69.79;98143.47;5034492;28;20314;-74
2022/10/11 06:42:05;;;;;;;35.70;16.80;;;;;;;17.49;69.57;98145.94;5040499;28;20176;-75
2022/10/11 06:44:32;;;;;;;29.97;15.67;;;;;;;17.51;69.44;98148.44;5026732;28;20255;-74
2022/10/11 06:46:57;;;;;;;35.00;17.20;;;;;;;17.53;69.15;98151.72;5033190;28;20422;-75
2022/10/11 06:49:23;;;;;;;36.43;16.97;;;;;;;17.52;68.93;98152.72;5033568;28;20912;-74
2022/10/11 06:51:48;;;;;;;24.50;16.57;;;;;;;17.51;69.02;98161.69;5034538;28;20604;-74
2022/10/11 06:54:13;;;;;;;34.17;16.63;;;;;;;17.49;69.18;98155.72;5029999;28;20287;-73
2022/10/11 06:56:39;;;;;;;32.90;17.23;;;;;;;17.45;69.26;98165.00;5033406;28;21113;-73
2022/10/11 06:59:05;;;;;;;37.67;16.23;;;;;;;17.45;69.44;98165.81;5033725;28;20715;-73
2022/10/11 07:01:31;;;;;;;36.80;16.90;;;;;;;17.49;69.22;98166.31;5034147;28;20176;-74
2022/10/11 07:03:57;;;;;;;30.00;17.60;;;;;;;17.46;69.34;98162.19;5033831;28;20835;-75
2022/10/11 07:06:26;;;;;;;30.60;17.03;;;;;;;17.44;69.37;98168.66;5032159;28;20254;-74
2022/10/11 07:08:54;;;;;;;34.87;19.10;;;;;;;17.48;69.19;98177.91;5033880;28;20427;-74
2022/10/11 07:11:22;;;;;;;31.90;17.27;;;;;;;17.47;69.37;98173.63;5032608;28;20484;-74
2022/10/11 07:13:55;;;;;;;32.70;18.07;;;;;;;17.47;69.17;98184.22;5033064;28;20537;-74
2022/10/11 07:16:22;;;;;;;31.43;18.10;;;;;;;17.46;69.00;98180.72;5033279;28;20491;-74
2022/10/11 07:18:51;;;;;;;38.27;17.27;;;;;;;17.47;69.19;98184.22;5033141;28;20427;-75
2022/10/11 07:21:16;;;;;;;28.23;15.50;;;;;;;17.45;69.15;98189.66;5041520;28;20432;-74
2022/10/11 07:23:42;;;;;;;25.90;17.60;;;;;;;17.46;69.49;98191.31;5027420;28;20881;-72
2022/10/11 07:26:09;;;;;;;35.90;17.80;;;;;;;17.48;69.52;98191.19;5032839;28;20238;-74
2022/10/11 07:28:35;;;;;;;29.53;17.73;;;;;;;17.52;69.33;98200.41;5033089;28;20263;-74
2022/10/11 07:31:10;;;;;;;31.60;19.13;;;;;;;17.50;69.47;98197.94;5032309;28;20422;-75
2022/10/11 07:33:36;;;;;;;30.67;18.40;;;;;;;17.51;69.31;98198.78;5024208;28;20434;-75
2022/10/11 07:36:02;;;;;;;29.27;16.90;;;;;;;17.54;69.48;98206.38;5033961;28;20863;-73
2022/10/11 07:38:28;;;;;;;29.03;17.10;;;;;;;17.57;69.47;98206.03;5031728;28;20191;-74
2022/10/11 07:40:53;;;;;;;28.00;16.90;;;;;;;17.61;69.53;98199.41;5037335;28;20464;-75
2022/10/11 07:43:19;;;;;;;31.63;18.10;;;;;;;17.64;69.39;98196.38;5029696;28;20218;-74
2022/10/11 07:45:47;;;;;;;30.40;17.23;;;;;;;17.64;69.07;98199.03;5038272;28;20233;-73
2022/10/11 07:48:13;;;;;;;36.87;17.97;;;;;;;17.67;69.06;98195.22;5034428;28;20176;-74
2022/10/11 07:50:38;;;;;;;32.90;18.27;;;;;;;17.72;68.92;98192.06;5033029;28;20441;-74
2022/10/11 07:53:04;;;;;;;27.73;18.90;;;;;;;17.79;68.80;98200.94;5032413;28;20790;-73
2022/10/11 07:55:33;;;;;;;36.20;19.30;;;;;;;17.80;68.64;98199.94;5033345;28;20253;-74
2022/10/11 07:57:58;;;;;;;30.80;17.77;;;;;;;17.85;68.74;98202.91;5032422;28;20180;-74
2022/10/11 08:00:24;;;;;;;27.93;16.57;;;;;;;17.86;68.38;98204.56;5032274;28;20945;-75
2022/10/11 08:02:49;;;;;;;24.33;16.70;;;;;;;17.88;68.34;98207.88;5023844;28;20290;-74
2022/10/11 08:05:15;;;;;;;24.07;18.07;;;;;;;17.91;68.26;98206.69;5032184;28;20183;-76
2022/10/11 08:07:40;;;;;;;29.13;19.00;;;;;;;17.94;68.08;98211.66;5032319;28;20182;-72
2022/10/11 08:10:07;;;;;;;30.63;17.63;;;;;;;17.96;67.82;98204.31;5032726;28;20188;-74
2022/10/11 08:12:32;;;;;;;23.50;16.80;;;;;;;18.01;68.00;98206.50;5032116;28;20203;-74
2022/10/11 08:14:58;;;;;;;25.13;18.47;;;;;;;18.07;67.95;98200.47;5039882;28;21147;-75
2022/10/11 08:17:23;;;;;;;33.27;18.60;;;;;;;18.11;67.88;98199.94;5032117;28;21958;-75
2022/10/11 08:19:49;;;;;;;28.10;17.80;;;;;;;18.14;67.61;98201.44;5031965;28;20550;-75
2022/10/11 08:22:15;;;;;;;34.97;17.50;;;;;;;18.18;67.27;98201.91;5033404;28;20353;-75
2022/10/11 08:24:40;;;;;;;29.80;17.07;;;;;;;18.18;66.82;98205.38;5032649;28;20233;-73
2022/10/11 08:27:05;;;;;;;36.33;17.97;;;;;;;18.18;66.69;98210.69;5031601;28;20184;-74
2022/10/11 08:29:31;;;;;;;30.70;17.00;;;;;;;18.18;66.93;98215.19;5031695;28;20179;-74
2022/10/11 08:31:57;;;;;;;35.23;17.50;;;;;;;18.22;66.72;98214.63;5032091;28;20281;-74
2022/10/11 08:34:22;;;;;;;22.10;16.30;;;;;;;18.19;66.31;98212.34;5039973;28;20348;-75
2022/10/11 08:36:48;;;;;;;30.17;17.60;;;;;;;18.14;66.21;98217.34;5031066;28;20183;-75
2022/10/11 08:39:13;;;;;;;32.37;16.60;;;;;;;18.10;66.44;98216.06;5030579;28;20298;-74
2022/10/11 08:41:48;;;;;;;26.10;17.83;;;;;;;18.06;66.67;98214.75;5031636;28;20207;-75
2022/10/11 08:44:22;;;;;;;27.50;17.90;;;;;;;18.03;66.43;98220.38;5031605;28;21078;-74
2022/10/11 08:46:51;;;;;;;33.27;18.10;;;;;;;18.00;66.79;98220.75;5031075;28;20981;-74
2022/10/11 08:49:18;;;;;;;25.10;17.03;;;;;;;17.98;66.98;98218.25;5029492;28;20423;-73
2022/10/11 08:51:44;;;;;;;29.60;18.73;;;;;;;17.96;66.80;98221.06;5030835;28;20426;-74
2022/10/11 08:54:44;;;;;;;31.27;18.00;;;;;;;17.96;67.05;98228.19;5030487;28;20507;-74
2022/10/11 08:57:17;;;;;;;32.07;16.40;;;;;;;17.99;66.84;98219.09;5030052;28;20437;-74
2022/10/11 08:59:53;;;;;;;27.93;17.53;;;;;;;18.02;66.97;98221.41;5036400;28;20465;-74
2022/10/11 09:02:30;;;;;;;23.83;16.60;;;;;;;18.04;66.78;98217.59;5030098;28;20454;-75
2022/10/11 09:04:56;;;;;;;33.33;18.00;;;;;;;18.00;66.53;98231.38;5031504;28;20430;-74
2022/10/11 09:07:33;;;;;;;32.80;18.53;;;;;;;17.91;66.67;98220.75;5028962;28;20431;-75
2022/10/11 09:10:23;;;;;;;33.83;19.13;;;;;;;17.89;66.96;98222.78;5031802;28;20776;-74
2022/10/11 09:13:16;;;;;;;34.33;19.37;;;;;;;17.88;66.85;98223.78;5026244;28;20485;-75
2022/10/11 09:15:58;;;;;;;31.37;18.07;;;;;;;17.88;66.98;98218.47;5029876;28;20425;-73
2022/10/11 09:18:48;;;;;;;25.40;16.47;;;;;;;17.90;67.12;98227.06;5031241;28;21240;-74
2022/10/11 09:21:16;;;;;;;29.93;18.50;;;;;;;17.89;66.83;98228.09;5010799;28;20997;-75
2022/10/11 09:23:46;;;;;;;37.20;19.03;;;;;;;17.91;66.83;98222.59;5030905;28;20844;-73
2022/10/11 09:26:24;;;;;;;37.70;19.80;;;;;;;17.90;67.00;98231.56;5031379;28;20896;-74
2022/10/11 09:29:10;;;;;;;29.27;16.73;;;;;;;17.90;66.88;98231.56;5043259;28;20421;-73
2022/10/11 09:31:35;;;;;;;29.80;17.83;;;;;;;17.90;66.64;98232.38;5023679;28;20494;-73
2022/10/11 09:34:13;;;;;;;32.83;17.43;;;;;;;17.87;67.02;98224.78;5029338;28;20475;-73
2022/10/11 09:37:02;;;;;;;34.17;18.80;;;;;;;17.81;66.73;98226.31;5022946;28;20187;-74
2022/10/11 09:39:33;;;;;;;37.60;19.07;;;;;;;17.79;67.01;98233.59;5029632;28;20461;-74
2022/10/11 09:42:01;;;;;;;37.40;18.33;;;;;;;17.84;66.99;98230.44;5035507;28;20505;-74
2022/10/11 09:44:44;;;;;;;34.20;18.47;;;;;;;17.83;66.96;98230.59;5038928;28;20414;-74
2022/10/11 09:47:19;;;;;;;33.40;18.47;;;;;;;17.85;67.01;98228.59;5029763;28;20426;-72
2022/10/11 09:49:57;;;;;;;33.87;19.20;;;;;;;17.81;66.74;98226.31;5038601;28;20515;-74
2022/10/11 09:52:24;;;;;;;29.13;18.33;;;;;;;17.81;66.98;98239.56;5030780;28;20977;-75
2022/10/11 09:54:53;;;;;;;39.30;19.63;;;;;;;17.81;67.06;98242.22;5031040;28;20981;-74
2022/10/11 09:57:21;;;;;;;32.23;18.17;;;;;;;17.81;67.01;98239.56;5029533;28;20517;-74
2022/10/11 10:00:06;;;;;;;41.13;19.00;;;;;;;17.83;67.00;98243.88;5030377;28;20466;-73
2022/10/11 10:02:57;;;;;;;48.33;20.30;;;;;;;17.82;67.00;98243.03;5022257;28;20454;-74
2022/10/11 10:05:28;;;;;;;29.83;18.23;;;;;;;17.86;67.14;98240.84;5032906;28;20426;-75
2022/10/11 10:08:08;;;;;;;40.07;18.90;;;;;;;17.88;67.14;98236.19;5033411;28;20433;-74
2022/10/11 10:10:41;;;;;;;27.30;17.53;;;;;;;17.92;66.90;98238.31;5023431;28;20462;-72
2022/10/11 10:13:21;;;;;;;35.70;20.20;;;;;;;17.92;66.98;98235.66;5029535;28;20454;-75
2022/10/11 10:15:49;;;;;;;40.67;18.33;;;;;;;18.00;66.74;98237.50;5034943;28;20418;-74
2022/10/11 10:18:32;;;;;;;41.70;19.97;;;;;;;18.05;66.75;98234.31;5029121;28;20461;-74
2022/10/11 10:21:01;;;;;;;37.20;19.43;;;;;;;18.11;66.44;98233.63;5036176;28;20465;-75
2022/10/11 10:23:33;;;;;;;36.70;18.60;;;;;;;18.17;66.36;98235.56;5029646;28;20438;-74
2022/10/11 10:26:31;;;;;;;37.60;17.57;;;;;;;18.21;66.37;98230.75;5028674;28;20435;-74
2022/10/11 10:29:08;;;;;;;42.60;18.43;;;;;;;18.27;66.23;98232.69;5013461;28;20438;-75
2022/10/11 10:31:48;;;;;;;34.23;19.83;;;;;;;18.26;66.25;98231.03;5024103;28;20420;-72
2022/10/11 10:34:17;;;;;;;30.50;18.40;;;;;;;18.33;66.38;98239.09;5030279;28;20985;-73
2022/10/11 10:36:46;;;;;;;33.40;17.07;;;;;;;18.39;66.54;98241.88;5028506;28;20422;-75
2022/10/11 10:39:29;;;;;;;44.53;17.60;;;;;;;18.43;66.25;98237.03;5029216;28;20945;-75
2022/10/11 10:41:55;;;;;;;30.70;16.80;;;;;;;18.49;66.04;98236.34;5035761;28;20430;-75
2022/10/11 10:44:21;;;;;;;36.37;17.80;;;;;;;18.54;65.87;98241.09;5028671;28;20553;-74
2022/10/11 10:47:24;;;;;;;31.77;17.10;;;;;;;18.55;65.46;98240.91;5029942;28;20192;-75
2022/10/11 10:49:57;;;;;;;29.50;16.30;;;;;;;18.54;65.42;98239.25;5024324;28;20184;-75
2022/10/11 10:52:25;;;;;;;21.47;15.83;;;;;;;18.58;65.11;98239.75;5029234;28;20450;-75
2022/10/11 10:55:25;;;;;;;39.03;16.77;;;;;;;18.60;65.18;98234.25;5029041;28;20981;-75
2022/10/11 10:58:05;;;;;;;32.67;16.00;;;;;;;18.67;64.97;98230.72;5024405;28;20422;-75
2022/10/11 11:00:39;;;;;;;28.33;16.93;;;;;;;18.71;65.08;98239.13;5022473;28;20545;-75
2022/10/11 11:03:15;;;;;;;24.67;16.33;;;;;;;18.75;64.68;98228.97;5029970;28;20536;-74
2022/10/11 11:06:01;;;;;;;33.30;17.93;;;;;;;18.81;64.55;98229.09;5028169;28;20422;-74
2022/10/11 11:08:46;;;;;;;30.87;15.97;;;;;;;18.86;64.57;98232.03;5028135;28;20968;-75
2022/10/11 11:11:45;;;;;;;40.57;16.27;;;;;;;18.88;64.13;98223.88;5028874;28;20428;-75
2022/10/11 11:14:34;;;;;;;30.53;16.20;;;;;;;18.96;64.25;98230.97;5029573;28;20454;-75
2022/10/11 11:17:21;;;;;;;30.20;15.60;;;;;;;18.98;63.67;98223.66;5037117;28;20430;-77
2022/10/11 11:19:56;;;;;;;39.37;16.40;;;;;;;18.97;63.68;98227.31;5027408;28;20458;-74
2022/10/11 11:22:40;;;;;;;31.03;15.73;;;;;;;18.88;63.23;98229.19;5040814;28;20449;-75
2022/10/11 11:25:24;;;;;;;26.83;16.27;;;;;;;18.84;63.40;98223.41;5033661;28;20874;-74
2022/10/11 11:28:22;;;;;;;38.23;15.93;;;;;;;18.82;63.24;98222.78;5032654;28;20506;-74
2022/10/11 11:31:07;;;;;;;25.30;15.53;;;;;;;18.74;62.87;98228.16;5034912;28;20422;-74
2022/10/11 11:33:47;;;;;;;27.53;15.03;;;;;;;18.71;63.18;98231.16;5026089;28;20430;-75
2022/10/11 11:36:16;;;;;;;28.63;16.00;;;;;;;18.65;63.28;98221.28;5032090;28;20422;-76